sensor_id;sensor_type;location;lat;lon;timestamp;temperature;humidity
23609;DHT22;11982;50.810;4.442;2024-02-28T00:02:24;2.40;99.90
23609;DHT22;11982;50.810;4.442;2024-02-28T00:04:50;2.30;99.90
23609;DHT22;11982;50.810;4.442;2024-02-28T00:07:15;2.30;99.90
23609;DHT22;11982;50.810;4.442;2024-02-28T00:09:42;2.20;99.90
23609;DHT22;11982;50.810;4.442;2024-02-28T00:12:08;2.10;99.90
23609;DHT22;11982;50.810;4.442;2024-02-28T00:14:34;2.00;99.90
23609;DHT22;11982;50.810;4.442;2024-02-28T00:16:59;2.00;99.90
23609;DHT22;11982;50.810;4.442;2024-02-28T00:19:25;2.00;99.90
23609;DHT22;11982;50.810;4.442;2024-02-28T00:21:50;2.00;99.90
23609;DHT22;11982;50.810;4.442;2024-02-28T00:24:16;1.80;99.90
23609;DHT22;11982;50.810;4.442;2024-02-28T00:26:42;1.80;99.90
23609;DHT22;11982;50.810;4.442;2024-02-28T00:29:09;1.80;99.90
23609;DHT22;11982;50.810;4.442;2024-02-28T00:31:35;1.80;99.90
23609;DHT22;11982;50.810;4.442;2024-02-28T00:34:01;1.80;99.90
23609;DHT22;11982;50.810;4.442;2024-02-28T00:36:27;1.70;99.90
23609;DHT22;11982;50.810;4.442;2024-02-28T00:38:52;1.80;99.90
23609;DHT22;11982;50.810;4.442;2024-02-28T00:41:18;2.00;99.90
23609;DHT22;11982;50.810;4.442;2024-02-28T00:43:44;2.00;99.90
23609;DHT22;11982;50.810;4.442;2024-02-28T00:46:09;2.00;99.90
23609;DHT22;11982;50.810;4.442;2024-02-28T00:48:38;2.20;99.90
23609;DHT22;11982;50.810;4.442;2024-02-28T00:51:04;2.20;99.90
23609;DHT22;11982;50.810;4.442;2024-02-28T00:53:30;2.10;99.90
23609;DHT22;11982;50.810;4.442;2024-02-28T00:55:56;2.20;99.90
23609;DHT22;11982;50.810;4.442;2024-02-28T00:58:22;2.10;99.90
23609;DHT22;11982;50.810;4.442;2024-02-28T01:00:48;2.00;99.90
23609;DHT22;11982;50.810;4.442;2024-02-28T01:03:14;2.10;99.90
23609;DHT22;11982;50.810;4.442;2024-02-28T01:05:41;2.00;99.90
23609;DHT22;11982;50.810;4.442;2024-02-28T01:08:07;2.00;99.90
23609;DHT22;11982;50.810;4.442;2024-02-28T01:10:33;1.90;99.90
23609;DHT22;11982;50.810;4.442;2024-02-28T01:12:59;1.90;99.90
23609;DHT22;11982;50.810;4.442;2024-02-28T01:15:25;2.00;99.90
23609;DHT22;11982;50.810;4.442;2024-02-28T01:17:50;2.00;99.90
23609;DHT22;11982;50.810;4.442;2024-02-28T01:20:16;1.90;99.90
23609;DHT22;11982;50.810;4.442;2024-02-28T01:22:42;1.80;99.90
23609;DHT22;11982;50.810;4.442;2024-02-28T01:25:08;1.90;99.90
23609;DHT22;11982;50.810;4.442;2024-02-28T01:27:34;1.80;99.90
23609;DHT22;11982;50.810;4.442;2024-02-28T01:30:00;1.80;99.90
23609;DHT22;11982;50.810;4.442;2024-02-28T01:32:26;1.80;99.90
23609;DHT22;11982;50.810;4.442;2024-02-28T01:34:54;1.70;99.90
23609;DHT22;11982;50.810;4.442;2024-02-28T01:37:20;1.60;99.90
23609;DHT22;11982;50.810;4.442;2024-02-28T01:39:45;1.60;99.90
23609;DHT22;11982;50.810;4.442;2024-02-28T01:42:14;1.50;99.90
23609;DHT22;11982;50.810;4.442;2024-02-28T01:44:45;1.40;99.90
23609;DHT22;11982;50.810;4.442;2024-02-28T01:47:12;1.40;99.90
23609;DHT22;11982;50.810;4.442;2024-02-28T01:49:40;1.50;99.90
23609;DHT22;11982;50.810;4.442;2024-02-28T01:52:06;1.60;99.90
23609;DHT22;11982;50.810;4.442;2024-02-28T01:54:33;1.60;99.90
23609;DHT22;11982;50.810;4.442;2024-02-28T01:57:00;1.50;99.90
23609;DHT22;11982;50.810;4.442;2024-02-28T01:59:27;1.40;99.90
23609;DHT22;11982;50.810;4.442;2024-02-28T02:01:54;1.40;99.90
23609;DHT22;11982;50.810;4.442;2024-02-28T02:04:20;1.50;99.90
23609;DHT22;11982;50.810;4.442;2024-02-28T02:06:45;1.60;99.90
23609;DHT22;11982;50.810;4.442;2024-02-28T02:09:13;1.50;99.90
23609;DHT22;11982;50.810;4.442;2024-02-28T02:11:39;1.50;99.90
23609;DHT22;11982;50.810;4.442;2024-02-28T02:14:04;1.40;99.90
23609;DHT22;11982;50.810;4.442;2024-02-28T02:16:30;1.40;99.90
23609;DHT22;11982;50.810;4.442;2024-02-28T02:18:56;1.40;99.90
23609;DHT22;11982;50.810;4.442;2024-02-28T02:21:30;1.30;99.90
23609;DHT22;11982;50.810;4.442;2024-02-28T02:23:56;1.20;99.90
23609;DHT22;11982;50.810;4.442;2024-02-28T02:26:21;1.20;99.90
23609;DHT22;11982;50.810;4.442;2024-02-28T02:28:47;1.20;99.90
23609;DHT22;11982;50.810;4.442;2024-02-28T02:31:13;1.20;99.90
23609;DHT22;11982;50.810;4.442;2024-02-28T02:33:39;1.10;99.90
23609;DHT22;11982;50.810;4.442;2024-02-28T02:36:05;1.10;99.90
23609;DHT22;11982;50.810;4.442;2024-02-28T02:38:31;1.20;99.90
23609;DHT22;11982;50.810;4.442;2024-02-28T02:40:56;1.30;99.90
23609;DHT22;11982;50.810;4.442;2024-02-28T02:43:22;1.20;99.90
23609;DHT22;11982;50.810;4.442;2024-02-28T02:45:48;1.20;99.90
23609;DHT22;11982;50.810;4.442;2024-02-28T02:48:13;1.20;99.90
23609;DHT22;11982;50.810;4.442;2024-02-28T02:50:39;1.30;99.90
23609;DHT22;11982;50.810;4.442;2024-02-28T02:53:08;1.20;99.90
23609;DHT22;11982;50.810;4.442;2024-02-28T02:55:34;1.10;99.90
23609;DHT22;11982;50.810;4.442;2024-02-28T02:58:00;1.20;99.90
23609;DHT22;11982;50.810;4.442;2024-02-28T03:00:28;1.20;99.90
23609;DHT22;11982;50.810;4.442;2024-02-28T03:02:53;1.20;99.90
23609;DHT22;11982;50.810;4.442;2024-02-28T03:05:19;1.10;99.90
23609;DHT22;11982;50.810;4.442;2024-02-28T03:07:45;0.90;99.90
23609;DHT22;11982;50.810;4.442;2024-02-28T03:10:10;1.00;99.90
23609;DHT22;11982;50.810;4.442;2024-02-28T03:12:36;1.00;99.90
23609;DHT22;11982;50.810;4.442;2024-02-28T03:15:02;0.90;99.90
23609;DHT22;11982;50.810;4.442;2024-02-28T03:17:29;0.70;99.90
23609;DHT22;11982;50.810;4.442;2024-02-28T03:19:54;0.80;99.90
23609;DHT22;11982;50.810;4.442;2024-02-28T03:22:20;0.80;99.90
23609;DHT22;11982;50.810;4.442;2024-02-28T03:24:46;0.70;99.90
23609;DHT22;11982;50.810;4.442;2024-02-28T03:27:11;0.70;99.90
23609;DHT22;11982;50.810;4.442;2024-02-28T03:29:37;0.70;99.90
23609;DHT22;11982;50.810;4.442;2024-02-28T03:32:03;0.70;99.90
23609;DHT22;11982;50.810;4.442;2024-02-28T03:34:29;0.80;99.90
23609;DHT22;11982;50.810;4.442;2024-02-28T03:36:55;0.80;99.90
23609;DHT22;11982;50.810;4.442;2024-02-28T03:39:21;0.90;99.90
23609;DHT22;11982;50.810;4.442;2024-02-28T03:41:46;0.70;99.90
23609;DHT22;11982;50.810;4.442;2024-02-28T03:44:12;0.70;99.90
23609;DHT22;11982;50.810;4.442;2024-02-28T03:46:38;0.70;99.90
23609;DHT22;11982;50.810;4.442;2024-02-28T03:49:03;0.80;99.90
23609;DHT22;11982;50.810;4.442;2024-02-28T03:51:29;0.80;99.90
23609;DHT22;11982;50.810;4.442;2024-02-28T03:53:57;0.80;99.90
23609;DHT22;11982;50.810;4.442;2024-02-28T03:56:26;0.70;99.90
23609;DHT22;11982;50.810;4.442;2024-02-28T03:58:53;0.70;99.90
23609;DHT22;11982;50.810;4.442;2024-02-28T04:01:19;0.70;99.90
23609;DHT22;11982;50.810;4.442;2024-02-28T04:03:44;0.70;99.90
23609;DHT22;11982;50.810;4.442;2024-02-28T04:06:10;0.70;99.90
23609;DHT22;11982;50.810;4.442;2024-02-28T04:08:36;0.70;99.90
23609;DHT22;11982;50.810;4.442;2024-02-28T04:11:02;0.90;99.90
23609;DHT22;11982;50.810;4.442;2024-02-28T04:13:28;0.90;99.90
23609;DHT22;11982;50.810;4.442;2024-02-28T04:15:54;0.90;99.90
23609;DHT22;11982;50.810;4.442;2024-02-28T04:18:19;0.90;99.90
23609;DHT22;11982;50.810;4.442;2024-02-28T04:20:45;0.80;99.90
23609;DHT22;11982;50.810;4.442;2024-02-28T04:23:11;0.80;99.90
23609;DHT22;11982;50.810;4.442;2024-02-28T04:25:36;0.80;99.90
23609;DHT22;11982;50.810;4.442;2024-02-28T04:28:06;0.80;99.90
23609;DHT22;11982;50.810;4.442;2024-02-28T04:30:31;0.80;99.90
23609;DHT22;11982;50.810;4.442;2024-02-28T04:32:57;0.70;99.90
23609;DHT22;11982;50.810;4.442;2024-02-28T04:35:23;0.60;99.90
23609;DHT22;11982;50.810;4.442;2024-02-28T04:37:48;0.50;99.90
23609;DHT22;11982;50.810;4.442;2024-02-28T04:40:14;0.70;99.90
23609;DHT22;11982;50.810;4.442;2024-02-28T04:42:41;0.70;99.90
23609;DHT22;11982;50.810;4.442;2024-02-28T04:45:07;0.70;99.90
23609;DHT22;11982;50.810;4.442;2024-02-28T04:47:33;0.70;99.90
23609;DHT22;11982;50.810;4.442;2024-02-28T04:49:59;0.80;99.90
23609;DHT22;11982;50.810;4.442;2024-02-28T04:52:24;0.80;99.90
23609;DHT22;11982;50.810;4.442;2024-02-28T04:54:51;0.80;99.90
23609;DHT22;11982;50.810;4.442;2024-02-28T04:57:16;0.80;99.90
23609;DHT22;11982;50.810;4.442;2024-02-28T04:59:44;0.80;99.90
23609;DHT22;11982;50.810;4.442;2024-02-28T05:02:09;0.80;99.90
23609;DHT22;11982;50.810;4.442;2024-02-28T05:04:35;0.90;99.90
23609;DHT22;11982;50.810;4.442;2024-02-28T05:07:01;0.90;99.90
23609;DHT22;11982;50.810;4.442;2024-02-28T05:09:27;0.80;99.90
23609;DHT22;11982;50.810;4.442;2024-02-28T05:11:52;0.80;99.90
23609;DHT22;11982;50.810;4.442;2024-02-28T05:14:18;0.80;99.90
23609;DHT22;11982;50.810;4.442;2024-02-28T05:16:44;1.00;99.90
23609;DHT22;11982;50.810;4.442;2024-02-28T05:19:09;1.10;99.90
23609;DHT22;11982;50.810;4.442;2024-02-28T05:21:42;1.30;99.90
23609;DHT22;11982;50.810;4.442;2024-02-28T05:24:08;1.50;99.90
23609;DHT22;11982;50.810;4.442;2024-02-28T05:26:34;1.50;99.90
23609;DHT22;11982;50.810;4.442;2024-02-28T05:29:00;1.70;99.90
23609;DHT22;11982;50.810;4.442;2024-02-28T05:31:27;1.80;99.90
23609;DHT22;11982;50.810;4.442;2024-02-28T05:33:54;2.00;99.90
23609;DHT22;11982;50.810;4.442;2024-02-28T05:36:22;2.20;99.90
23609;DHT22;11982;50.810;4.442;2024-02-28T05:38:48;2.20;99.90
23609;DHT22;11982;50.810;4.442;2024-02-28T05:41:15;2.20;99.90
23609;DHT22;11982;50.810;4.442;2024-02-28T05:43:41;2.20;99.90
23609;DHT22;11982;50.810;4.442;2024-02-28T05:46:07;2.20;99.90
23609;DHT22;11982;50.810;4.442;2024-02-28T05:48:33;2.30;99.90
23609;DHT22;11982;50.810;4.442;2024-02-28T05:51:00;2.40;99.90
23609;DHT22;11982;50.810;4.442;2024-02-28T05:53:26;2.50;99.90
23609;DHT22;11982;50.810;4.442;2024-02-28T05:55:55;2.60;99.90
23609;DHT22;11982;50.810;4.442;2024-02-28T05:58:22;2.60;99.90
23609;DHT22;11982;50.810;4.442;2024-02-28T06:00:48;2.70;99.90
23609;DHT22;11982;50.810;4.442;2024-02-28T06:03:13;2.90;99.90
23609;DHT22;11982;50.810;4.442;2024-02-28T06:05:39;3.00;99.90
23609;DHT22;11982;50.810;4.442;2024-02-28T06:08:05;3.00;99.90
23609;DHT22;11982;50.810;4.442;2024-02-28T06:10:31;3.00;99.90
23609;DHT22;11982;50.810;4.442;2024-02-28T06:12:56;3.10;99.90
23609;DHT22;11982;50.810;4.442;2024-02-28T06:15:22;3.20;99.90
23609;DHT22;11982;50.810;4.442;2024-02-28T06:17:47;3.20;99.90
23609;DHT22;11982;50.810;4.442;2024-02-28T06:20:13;3.10;99.90
23609;DHT22;11982;50.810;4.442;2024-02-28T06:22:40;3.30;99.90
23609;DHT22;11982;50.810;4.442;2024-02-28T06:25:06;3.40;99.90
23609;DHT22;11982;50.810;4.442;2024-02-28T06:27:39;3.40;99.90
23609;DHT22;11982;50.810;4.442;2024-02-28T06:30:05;3.40;99.90
23609;DHT22;11982;50.810;4.442;2024-02-28T06:32:32;3.60;99.90
23609;DHT22;11982;50.810;4.442;2024-02-28T06:34:57;3.60;99.90
23609;DHT22;11982;50.810;4.442;2024-02-28T06:37:23;3.60;99.90
23609;DHT22;11982;50.810;4.442;2024-02-28T06:39:48;3.70;99.90
23609;DHT22;11982;50.810;4.442;2024-02-28T06:42:14;3.80;99.90
23609;DHT22;11982;50.810;4.442;2024-02-28T06:44:40;4.00;99.90
23609;DHT22;11982;50.810;4.442;2024-02-28T06:47:05;4.00;99.90
23609;DHT22;11982;50.810;4.442;2024-02-28T06:49:31;4.00;99.90
23609;DHT22;11982;50.810;4.442;2024-02-28T06:51:57;4.00;99.90
23609;DHT22;11982;50.810;4.442;2024-02-28T06:54:26;4.30;99.90
23609;DHT22;11982;50.810;4.442;2024-02-28T06:56:52;4.30;99.90
23609;DHT22;11982;50.810;4.442;2024-02-28T06:59:18;4.30;99.90
23609;DHT22;11982;50.810;4.442;2024-02-28T07:01:43;4.40;99.90
23609;DHT22;11982;50.810;4.442;2024-02-28T07:04:09;4.60;99.90
23609;DHT22;11982;50.810;4.442;2024-02-28T07:06:35;4.70;99.90
23609;DHT22;11982;50.810;4.442;2024-02-28T07:09:00;4.60;99.90
23609;DHT22;11982;50.810;4.442;2024-02-28T07:11:26;4.60;99.90
23609;DHT22;11982;50.810;4.442;2024-02-28T07:13:52;4.60;99.90
23609;DHT22;11982;50.810;4.442;2024-02-28T07:16:17;4.60;99.90
23609;DHT22;11982;50.810;4.442;2024-02-28T07:18:43;4.70;99.90
23609;DHT22;11982;50.810;4.442;2024-02-28T07:21:09;4.80;99.90
23609;DHT22;11982;50.810;4.442;2024-02-28T07:23:34;4.90;99.90
23609;DHT22;11982;50.810;4.442;2024-02-28T07:26:00;4.80;99.90
23609;DHT22;11982;50.810;4.442;2024-02-28T07:28:26;5.00;99.90
23609;DHT22;11982;50.810;4.442;2024-02-28T07:30:51;5.10;99.90
23609;DHT22;11982;50.810;4.442;2024-02-28T07:33:17;5.20;99.90
23609;DHT22;11982;50.810;4.442;2024-02-28T07:35:46;5.20;99.90
23609;DHT22;11982;50.810;4.442;2024-02-28T07:38:12;5.20;99.90
23609;DHT22;11982;50.810;4.442;2024-02-28T07:40:38;5.20;99.90
23609;DHT22;11982;50.810;4.442;2024-02-28T07:43:03;5.40;99.90
23609;DHT22;11982;50.810;4.442;2024-02-28T07:45:29;5.40;99.90
23609;DHT22;11982;50.810;4.442;2024-02-28T07:47:55;5.50;99.90
23609;DHT22;11982;50.810;4.442;2024-02-28T07:50:20;5.60;99.90
23609;DHT22;11982;50.810;4.442;2024-02-28T07:52:46;5.80;99.90
23609;DHT22;11982;50.810;4.442;2024-02-28T07:55:11;6.10;99.90
23609;DHT22;11982;50.810;4.442;2024-02-28T07:57:37;6.20;99.90
23609;DHT22;11982;50.810;4.442;2024-02-28T08:00:04;6.20;99.90
23609;DHT22;11982;50.810;4.442;2024-02-28T08:02:30;6.20;99.90
23609;DHT22;11982;50.810;4.442;2024-02-28T08:04:56;6.40;99.90
23609;DHT22;11982;50.810;4.442;2024-02-28T08:07:22;6.40;99.90
23609;DHT22;11982;50.810;4.442;2024-02-28T08:09:47;6.60;99.90
23609;DHT22;11982;50.810;4.442;2024-02-28T08:12:13;6.50;99.90
23609;DHT22;11982;50.810;4.442;2024-02-28T08:14:39;6.70;99.90
23609;DHT22;11982;50.810;4.442;2024-02-28T08:17:04;6.90;99.90
23609;DHT22;11982;50.810;4.442;2024-02-28T08:19:30;7.20;99.90
23609;DHT22;11982;50.810;4.442;2024-02-28T08:21:56;7.90;99.90
23609;DHT22;11982;50.810;4.442;2024-02-28T08:24:21;8.20;99.90
23609;DHT22;11982;50.810;4.442;2024-02-28T08:26:47;8.30;99.90
23609;DHT22;11982;50.810;4.442;2024-02-28T08:29:12;8.30;99.90
23609;DHT22;11982;50.810;4.442;2024-02-28T08:31:43;8.10;99.90
23609;DHT22;11982;50.810;4.442;2024-02-28T08:34:08;7.90;99.90
23609;DHT22;11982;50.810;4.442;2024-02-28T08:36:35;7.60;99.90
23609;DHT22;11982;50.810;4.442;2024-02-28T08:39:01;7.30;99.90
23609;DHT22;11982;50.810;4.442;2024-02-28T08:41:26;7.60;99.90
23609;DHT22;11982;50.810;4.442;2024-02-28T08:43:52;7.40;99.90
23609;DHT22;11982;50.810;4.442;2024-02-28T08:46:18;7.50;99.90
23609;DHT22;11982;50.810;4.442;2024-02-28T08:48:43;7.70;99.90
23609;DHT22;11982;50.810;4.442;2024-02-28T08:51:09;7.60;99.90
23609;DHT22;11982;50.810;4.442;2024-02-28T08:53:35;7.60;99.90
23609;DHT22;11982;50.810;4.442;2024-02-28T08:56:00;7.60;99.90
23609;DHT22;11982;50.810;4.442;2024-02-28T08:58:26;7.90;99.90
23609;DHT22;11982;50.810;4.442;2024-02-28T09:00:51;7.90;99.90
23609;DHT22;11982;50.810;4.442;2024-02-28T09:03:17;7.90;99.90
23609;DHT22;11982;50.810;4.442;2024-02-28T09:05:44;7.80;99.90
23609;DHT22;11982;50.810;4.442;2024-02-28T09:08:10;8.10;99.90
23609;DHT22;11982;50.810;4.442;2024-02-28T09:10:35;8.10;99.90
23609;DHT22;11982;50.810;4.442;2024-02-28T09:13:01;8.10;99.90
23609;DHT22;11982;50.810;4.442;2024-02-28T09:15:27;8.10;99.90
23609;DHT22;11982;50.810;4.442;2024-02-28T09:17:52;8.40;99.90
23609;DHT22;11982;50.810;4.442;2024-02-28T09:20:18;8.80;99.90
23609;DHT22;11982;50.810;4.442;2024-02-28T09:22:43;8.90;99.90
23609;DHT22;11982;50.810;4.442;2024-02-28T09:25:09;9.00;99.90
23609;DHT22;11982;50.810;4.442;2024-02-28T09:27:36;9.00;99.90
23609;DHT22;11982;50.810;4.442;2024-02-28T09:30:02;8.90;99.90
23609;DHT22;11982;50.810;4.442;2024-02-28T09:32:28;8.90;99.90
23609;DHT22;11982;50.810;4.442;2024-02-28T09:34:54;8.70;99.90
23609;DHT22;11982;50.810;4.442;2024-02-28T09:37:19;8.40;99.90
23609;DHT22;11982;50.810;4.442;2024-02-28T09:39:49;8.60;99.90
23609;DHT22;11982;50.810;4.442;2024-02-28T09:42:15;8.50;99.90
23609;DHT22;11982;50.810;4.442;2024-02-28T09:44:43;8.40;99.90
23609;DHT22;11982;50.810;4.442;2024-02-28T09:47:08;8.40;99.90
23609;DHT22;11982;50.810;4.442;2024-02-28T09:49:35;8.60;99.90
23609;DHT22;11982;50.810;4.442;2024-02-28T09:52:03;8.40;99.90
23609;DHT22;11982;50.810;4.442;2024-02-28T09:54:29;8.30;99.90
23609;DHT22;11982;50.810;4.442;2024-02-28T09:56:55;8.50;99.90
23609;DHT22;11982;50.810;4.442;2024-02-28T09:59:24;8.70;99.90
23609;DHT22;11982;50.810;4.442;2024-02-28T10:01:56;8.60;99.90
23609;DHT22;11982;50.810;4.442;2024-02-28T10:04:25;8.70;99.90
23609;DHT22;11982;50.810;4.442;2024-02-28T10:06:51;8.70;99.90
23609;DHT22;11982;50.810;4.442;2024-02-28T10:09:17;8.60;99.90
23609;DHT22;11982;50.810;4.442;2024-02-28T10:11:42;8.60;99.90
23609;DHT22;11982;50.810;4.442;2024-02-28T10:14:18;8.90;99.90
23609;DHT22;11982;50.810;4.442;2024-02-28T10:16:46;8.90;99.90
23609;DHT22;11982;50.810;4.442;2024-02-28T10:19:12;8.80;99.90
23609;DHT22;11982;50.810;4.442;2024-02-28T10:21:38;8.70;99.90
23609;DHT22;11982;50.810;4.442;2024-02-28T10:24:05;8.80;99.90
23609;DHT22;11982;50.810;4.442;2024-02-28T10:26:30;8.90;99.90
23609;DHT22;11982;50.810;4.442;2024-02-28T10:29:03;8.70;99.90
23609;DHT22;11982;50.810;4.442;2024-02-28T10:31:31;8.90;99.90
23609;DHT22;11982;50.810;4.442;2024-02-28T10:33:57;9.20;99.90
23609;DHT22;11982;50.810;4.442;2024-02-28T10:36:23;9.20;99.90
23609;DHT22;11982;50.810;4.442;2024-02-28T10:38:49;9.60;99.90
23609;DHT22;11982;50.810;4.442;2024-02-28T10:41:15;10.00;99.90
23609;DHT22;11982;50.810;4.442;2024-02-28T10:43:42;9.80;99.90
23609;DHT22;11982;50.810;4.442;2024-02-28T10:46:09;10.10;99.90
23609;DHT22;11982;50.810;4.442;2024-02-28T10:48:35;10.50;99.90
23609;DHT22;11982;50.810;4.442;2024-02-28T10:51:03;10.30;99.90
23609;DHT22;11982;50.810;4.442;2024-02-28T10:53:36;10.40;99.90
23609;DHT22;11982;50.810;4.442;2024-02-28T10:56:05;10.50;99.90
23609;DHT22;11982;50.810;4.442;2024-02-28T10:58:35;10.50;99.90
23609;DHT22;11982;50.810;4.442;2024-02-28T11:01:05;10.70;99.90
23609;DHT22;11982;50.810;4.442;2024-02-28T11:03:31;10.40;99.90
23609;DHT22;11982;50.810;4.442;2024-02-28T11:05:57;10.10;99.90
23609;DHT22;11982;50.810;4.442;2024-02-28T11:08:24;10.10;99.90
23609;DHT22;11982;50.810;4.442;2024-02-28T11:11:03;10.30;99.90
23609;DHT22;11982;50.810;4.442;2024-02-28T11:13:30;10.10;99.90
23609;DHT22;11982;50.810;4.442;2024-02-28T11:16:09;10.20;99.90
23609;DHT22;11982;50.810;4.442;2024-02-28T11:18:35;10.30;99.90
23609;DHT22;11982;50.810;4.442;2024-02-28T11:21:01;10.20;99.90
23609;DHT22;11982;50.810;4.442;2024-02-28T11:23:35;10.20;99.90
23609;DHT22;11982;50.810;4.442;2024-02-28T11:26:03;10.30;99.90
23609;DHT22;11982;50.810;4.442;2024-02-28T11:28:29;10.30;99.90
23609;DHT22;11982;50.810;4.442;2024-02-28T11:30:55;10.20;99.90
23609;DHT22;11982;50.810;4.442;2024-02-28T11:33:21;10.30;99.90
23609;DHT22;11982;50.810;4.442;2024-02-28T11:35:57;10.30;99.90
23609;DHT22;11982;50.810;4.442;2024-02-28T11:38:26;10.30;99.90
23609;DHT22;11982;50.810;4.442;2024-02-28T11:40:53;10.40;99.90
23609;DHT22;11982;50.810;4.442;2024-02-28T11:43:19;10.50;99.90
23609;DHT22;11982;50.810;4.442;2024-02-28T11:45:44;10.60;99.90
23609;DHT22;11982;50.810;4.442;2024-02-28T11:48:16;10.90;99.90
23609;DHT22;11982;50.810;4.442;2024-02-28T11:50:42;10.90;99.90
23609;DHT22;11982;50.810;4.442;2024-02-28T11:53:08;10.50;99.90
23609;DHT22;11982;50.810;4.442;2024-02-28T11:55:34;10.40;99.90
23609;DHT22;11982;50.810;4.442;2024-02-28T11:58:00;10.60;99.90
23609;DHT22;11982;50.810;4.442;2024-02-28T12:00:26;10.80;99.90
23609;DHT22;11982;50.810;4.442;2024-02-28T12:02:52;10.90;99.90
23609;DHT22;11982;50.810;4.442;2024-02-28T12:05:19;11.20;99.90
23609;DHT22;11982;50.810;4.442;2024-02-28T12:07:45;11.10;99.90
23609;DHT22;11982;50.810;4.442;2024-02-28T12:10:11;11.10;99.90
23609;DHT22;11982;50.810;4.442;2024-02-28T12:12:39;11.50;99.90
23609;DHT22;11982;50.810;4.442;2024-02-28T12:15:05;11.30;99.90
23609;DHT22;11982;50.810;4.442;2024-02-28T12:17:31;11.40;99.90
23609;DHT22;11982;50.810;4.442;2024-02-28T12:20:01;11.60;99.90
23609;DHT22;11982;50.810;4.442;2024-02-28T12:22:27;11.90;99.90
23609;DHT22;11982;50.810;4.442;2024-02-28T12:24:53;12.20;99.90
23609;DHT22;11982;50.810;4.442;2024-02-28T12:27:19;12.20;99.90
23609;DHT22;11982;50.810;4.442;2024-02-28T12:29:45;12.50;99.90
23609;DHT22;11982;50.810;4.442;2024-02-28T12:32:10;12.00;99.90
23609;DHT22;11982;50.810;4.442;2024-02-28T12:34:37;11.90;99.90
23609;DHT22;11982;50.810;4.442;2024-02-28T12:37:03;11.90;99.90
23609;DHT22;11982;50.810;4.442;2024-02-28T12:39:30;11.70;99.90
23609;DHT22;11982;50.810;4.442;2024-02-28T12:41:57;11.80;99.90
23609;DHT22;11982;50.810;4.442;2024-02-28T12:44:23;11.50;99.90
23609;DHT22;11982;50.810;4.442;2024-02-28T12:46:48;11.50;99.90
23609;DHT22;11982;50.810;4.442;2024-02-28T12:49:14;11.20;99.90
23609;DHT22;11982;50.810;4.442;2024-02-28T12:51:40;11.00;99.90
23609;DHT22;11982;50.810;4.442;2024-02-28T12:54:07;11.40;99.90
23609;DHT22;11982;50.810;4.442;2024-02-28T12:56:34;11.50;99.90
23609;DHT22;11982;50.810;4.442;2024-02-28T12:59:00;11.50;99.90
23609;DHT22;11982;50.810;4.442;2024-02-28T13:01:26;11.30;99.90
23609;DHT22;11982;50.810;4.442;2024-02-28T13:03:52;11.30;99.90
23609;DHT22;11982;50.810;4.442;2024-02-28T13:06:18;11.20;99.90
23609;DHT22;11982;50.810;4.442;2024-02-28T13:08:44;11.20;99.90
23609;DHT22;11982;50.810;4.442;2024-02-28T13:11:10;11.00;99.90
23609;DHT22;11982;50.810;4.442;2024-02-28T13:13:36;10.90;99.90
23609;DHT22;11982;50.810;4.442;2024-02-28T13:16:02;10.90;99.90
23609;DHT22;11982;50.810;4.442;2024-02-28T13:18:28;11.00;99.90
23609;DHT22;11982;50.810;4.442;2024-02-28T13:20:53;11.00;99.90
23609;DHT22;11982;50.810;4.442;2024-02-28T13:23:19;10.90;99.90
23609;DHT22;11982;50.810;4.442;2024-02-28T13:25:45;10.80;99.90
23609;DHT22;11982;50.810;4.442;2024-02-28T13:28:10;10.70;99.90
23609;DHT22;11982;50.810;4.442;2024-02-28T13:30:36;10.80;99.90
23609;DHT22;11982;50.810;4.442;2024-02-28T13:33:03;11.00;99.90
23609;DHT22;11982;50.810;4.442;2024-02-28T13:35:29;11.20;99.90
23609;DHT22;11982;50.810;4.442;2024-02-28T13:37:56;11.30;99.90
23609;DHT22;11982;50.810;4.442;2024-02-28T13:40:28;11.30;99.90
23609;DHT22;11982;50.810;4.442;2024-02-28T13:42:54;11.40;99.90
23609;DHT22;11982;50.810;4.442;2024-02-28T13:45:19;11.30;99.90
23609;DHT22;11982;50.810;4.442;2024-02-28T13:47:45;11.50;99.90
23609;DHT22;11982;50.810;4.442;2024-02-28T13:50:11;11.40;99.90
23609;DHT22;11982;50.810;4.442;2024-02-28T13:52:36;11.40;99.90
23609;DHT22;11982;50.810;4.442;2024-02-28T13:55:02;11.50;99.90
23609;DHT22;11982;50.810;4.442;2024-02-28T13:57:28;11.60;99.90
23609;DHT22;11982;50.810;4.442;2024-02-28T13:59:54;11.60;99.90
23609;DHT22;11982;50.810;4.442;2024-02-28T14:02:23;11.40;99.90
23609;DHT22;11982;50.810;4.442;2024-02-28T14:04:52;11.20;99.90
23609;DHT22;11982;50.810;4.442;2024-02-28T14:07:18;11.30;99.90
23609;DHT22;11982;50.810;4.442;2024-02-28T14:09:44;11.40;99.90
23609;DHT22;11982;50.810;4.442;2024-02-28T14:12:10;11.60;99.90
23609;DHT22;11982;50.810;4.442;2024-02-28T14:14:36;11.50;99.90
23609;DHT22;11982;50.810;4.442;2024-02-28T14:17:01;11.40;99.90
23609;DHT22;11982;50.810;4.442;2024-02-28T14:19:28;11.40;99.90
23609;DHT22;11982;50.810;4.442;2024-02-28T14:21:54;11.40;99.90
23609;DHT22;11982;50.810;4.442;2024-02-28T14:24:19;11.40;99.90
23609;DHT22;11982;50.810;4.442;2024-02-28T14:26:45;11.60;99.90
23609;DHT22;11982;50.810;4.442;2024-02-28T14:29:11;11.70;99.90
23609;DHT22;11982;50.810;4.442;2024-02-28T14:31:37;11.50;99.90
23609;DHT22;11982;50.810;4.442;2024-02-28T14:34:03;11.40;99.90
23609;DHT22;11982;50.810;4.442;2024-02-28T14:36:31;11.60;99.90
23609;DHT22;11982;50.810;4.442;2024-02-28T14:38:57;11.80;99.90
23609;DHT22;11982;50.810;4.442;2024-02-28T14:41:23;11.40;99.90
23609;DHT22;11982;50.810;4.442;2024-02-28T14:43:49;11.20;99.90
23609;DHT22;11982;50.810;4.442;2024-02-28T14:46:15;11.10;99.90
23609;DHT22;11982;50.810;4.442;2024-02-28T14:48:43;10.90;99.90
23609;DHT22;11982;50.810;4.442;2024-02-28T14:51:17;11.20;99.90
23609;DHT22;11982;50.810;4.442;2024-02-28T14:53:43;11.00;99.90
23609;DHT22;11982;50.810;4.442;2024-02-28T14:56:08;10.90;99.90
23609;DHT22;11982;50.810;4.442;2024-02-28T14:58:34;10.90;99.90
23609;DHT22;11982;50.810;4.442;2024-02-28T15:01:00;11.10;99.90
23609;DHT22;11982;50.810;4.442;2024-02-28T15:03:27;11.10;99.90
23609;DHT22;11982;50.810;4.442;2024-02-28T15:05:53;11.30;99.90
23609;DHT22;11982;50.810;4.442;2024-02-28T15:08:19;11.50;99.90
23609;DHT22;11982;50.810;4.442;2024-02-28T15:10:45;11.20;99.90
23609;DHT22;11982;50.810;4.442;2024-02-28T15:13:10;11.10;99.90
23609;DHT22;11982;50.810;4.442;2024-02-28T15:15:36;11.10;99.90
23609;DHT22;11982;50.810;4.442;2024-02-28T15:18:02;10.90;99.90
23609;DHT22;11982;50.810;4.442;2024-02-28T15:20:28;10.90;99.90
23609;DHT22;11982;50.810;4.442;2024-02-28T15:22:54;10.90;99.90
23609;DHT22;11982;50.810;4.442;2024-02-28T15:25:20;11.00;99.90
23609;DHT22;11982;50.810;4.442;2024-02-28T15:27:46;11.10;99.90
23609;DHT22;11982;50.810;4.442;2024-02-28T15:30:12;11.10;99.90
23609;DHT22;11982;50.810;4.442;2024-02-28T15:32:38;10.80;99.90
23609;DHT22;11982;50.810;4.442;2024-02-28T15:35:06;10.70;99.90
23609;DHT22;11982;50.810;4.442;2024-02-28T15:37:32;10.80;99.90